sensor_id;sensor_type;location;lat;lon;timestamp;pressure;altitude;pressure_sealevel;temperature;humidity
26978;BME280;56314;48.088;11.642;2023-04-25T00:01:16;94820.75;;;7.00;78.90
26978;BME280;56314;48.088;11.642;2023-04-25T00:03:41;94815.81;;;7.08;77.58
26978;BME280;56314;48.088;11.642;2023-04-25T00:06:07;94808.94;;;7.07;77.86
26978;BME280;56314;48.088;11.642;2023-04-25T00:08:32;94809.53;;;7.11;78.27
26978;BME280;56314;48.088;11.642;2023-04-25T00:10:58;94807.53;;;7.14;76.49
26978;BME280;56314;48.088;11.642;2023-04-25T00:13:24;94802.69;;;7.21;75.30
26978;BME280;56314;48.088;11.642;2023-04-25T00:15:51;94798.41;;;7.20;75.30
26978;BME280;56314;48.088;11.642;2023-04-25T00:18:16;94797.13;;;7.26;75.21
26978;BME280;56314;48.088;11.642;2023-04-25T00:20:42;94799.50;;;7.29;75.47
26978;BME280;56314;48.088;11.642;2023-04-25T00:23:12;94811.84;;;7.27;75.92
26978;BME280;56314;48.088;11.642;2023-04-25T00:25:37;94816.94;;;7.28;75.49
26978;BME280;56314;48.088;11.642;2023-04-25T00:28:03;94812.22;;;7.33;76.42
26978;BME280;56314;48.088;11.642;2023-04-25T00:30:28;94808.81;;;7.33;76.01
26978;BME280;56314;48.088;11.642;2023-04-25T00:32:54;94817.47;;;7.33;75.48
26978;BME280;56314;48.088;11.642;2023-04-25T00:35:19;94813.31;;;7.31;75.36
26978;BME280;56314;48.088;11.642;2023-04-25T00:37:44;94810.94;;;7.39;75.90
26978;BME280;56314;48.088;11.642;2023-04-25T00:40:10;94813.19;;;7.32;75.81
26978;BME280;56314;48.088;11.642;2023-04-25T00:42:37;94809.28;;;7.38;75.58
26978;BME280;56314;48.088;11.642;2023-04-25T00:45:05;94805.50;;;7.42;75.56
26978;BME280;56314;48.088;11.642;2023-04-25T00:47:31;94805.72;;;7.39;75.01
26978;BME280;56314;48.088;11.642;2023-04-25T00:49:57;94809.50;;;7.35;75.04
26978;BME280;56314;48.088;11.642;2023-04-25T00:52:23;94800.50;;;7.39;75.18
26978;BME280;56314;48.088;11.642;2023-04-25T00:54:48;94807.91;;;7.45;74.86
26978;BME280;56314;48.088;11.642;2023-04-25T00:57:13;94807.38;;;7.40;74.82
26978;BME280;56314;48.088;11.642;2023-04-25T00:59:43;94803.84;;;7.41;75.53
26978;BME280;56314;48.088;11.642;2023-04-25T01:02:10;94791.22;;;7.35;75.08
26978;BME280;56314;48.088;11.642;2023-04-25T01:04:36;94791.94;;;7.37;74.98
26978;BME280;56314;48.088;11.642;2023-04-25T01:07:02;94792.41;;;7.31;76.27
26978;BME280;56314;48.088;11.642;2023-04-25T01:09:30;94801.44;;;7.38;75.50
26978;BME280;56314;48.088;11.642;2023-04-25T01:11:55;94798.44;;;7.31;76.51
26978;BME280;56314;48.088;11.642;2023-04-25T01:14:22;94795.84;;;7.31;76.69
26978;BME280;56314;48.088;11.642;2023-04-25T01:16:48;94787.91;;;7.33;76.48
26978;BME280;56314;48.088;11.642;2023-04-25T01:19:16;94791.34;;;7.33;74.84
26978;BME280;56314;48.088;11.642;2023-04-25T01:21:42;94790.84;;;7.28;75.00
26978;BME280;56314;48.088;11.642;2023-04-25T01:24:07;94790.00;;;7.28;75.24
26978;BME280;56314;48.088;11.642;2023-04-25T01:26:33;94792.63;;;7.28;75.20
26978;BME280;56314;48.088;11.642;2023-04-25T01:29:00;94788.84;;;7.32;75.44
26978;BME280;56314;48.088;11.642;2023-04-25T01:31:27;94788.00;;;7.31;75.25
26978;BME280;56314;48.088;11.642;2023-04-25T01:33:53;94781.00;;;7.32;74.40
26978;BME280;56314;48.088;11.642;2023-04-25T01:36:18;94786.94;;;7.34;74.88
26978;BME280;56314;48.088;11.642;2023-04-25T01:38:44;94781.97;;;7.31;73.94
26978;BME280;56314;48.088;11.642;2023-04-25T01:41:11;94782.19;;;7.28;74.24
26978;BME280;56314;48.088;11.642;2023-04-25T01:43:36;94784.22;;;7.35;75.02
26978;BME280;56314;48.088;11.642;2023-04-25T01:46:02;94776.00;;;7.29;74.15
26978;BME280;56314;48.088;11.642;2023-04-25T01:48:27;94783.69;;;7.19;74.02
26978;BME280;56314;48.088;11.642;2023-04-25T01:50:53;94778.47;;;7.19;75.03
26978;BME280;56314;48.088;11.642;2023-04-25T01:53:18;94780.69;;;7.12;75.14
26978;BME280;56314;48.088;11.642;2023-04-25T01:55:43;94779.03;;;7.11;74.50
26978;BME280;56314;48.088;11.642;2023-04-25T01:58:09;94785.78;;;7.02;74.98
26978;BME280;56314;48.088;11.642;2023-04-25T02:00:35;94785.44;;;7.07;75.84
26978;BME280;56314;48.088;11.642;2023-04-25T02:03:03;94784.19;;;7.00;76.38
26978;BME280;56314;48.088;11.642;2023-04-25T02:05:36;94777.03;;;6.90;76.23
26978;BME280;56314;48.088;11.642;2023-04-25T02:08:06;94775.16;;;6.92;76.71
26978;BME280;56314;48.088;11.642;2023-04-25T02:10:33;94767.88;;;6.85;76.77
26978;BME280;56314;48.088;11.642;2023-04-25T02:12:58;94778.25;;;6.73;76.87
26978;BME280;56314;48.088;11.642;2023-04-25T02:15:24;94771.19;;;6.62;77.94
26978;BME280;56314;48.088;11.642;2023-04-25T02:17:49;94781.75;;;6.61;77.39
26978;BME280;56314;48.088;11.642;2023-04-25T02:20:15;94776.13;;;6.54;78.46
26978;BME280;56314;48.088;11.642;2023-04-25T02:22:45;94781.06;;;6.46;78.57
26978;BME280;56314;48.088;11.642;2023-04-25T02:25:10;94786.88;;;6.50;78.59
26978;BME280;56314;48.088;11.642;2023-04-25T02:27:36;94789.72;;;6.46;78.05
26978;BME280;56314;48.088;11.642;2023-04-25T02:30:02;94777.72;;;6.44;77.10
26978;BME280;56314;48.088;11.642;2023-04-25T02:32:28;94778.25;;;6.49;76.56
26978;BME280;56314;48.088;11.642;2023-04-25T02:34:53;94774.03;;;6.59;76.41
26978;BME280;56314;48.088;11.642;2023-04-25T02:37:19;94778.53;;;6.57;75.76
26978;BME280;56314;48.088;11.642;2023-04-25T02:39:44;94780.19;;;6.58;76.72
26978;BME280;56314;48.088;11.642;2023-04-25T02:42:10;94776.31;;;6.64;76.45
26978;BME280;56314;48.088;11.642;2023-04-25T02:44:35;94774.91;;;6.71;75.81
26978;BME280;56314;48.088;11.642;2023-04-25T02:47:01;94757.50;;;6.72;75.64
26978;BME280;56314;48.088;11.642;2023-04-25T02:49:26;94766.16;;;6.72;74.74
26978;BME280;56314;48.088;11.642;2023-04-25T02:51:52;94772.31;;;6.71;74.93
26978;BME280;56314;48.088;11.642;2023-04-25T02:54:17;94773.16;;;6.72;75.34
26978;BME280;56314;48.088;11.642;2023-04-25T02:56:42;94768.44;;;6.77;75.14
26978;BME280;56314;48.088;11.642;2023-04-25T02:59:07;94762.47;;;6.75;74.80
26978;BME280;56314;48.088;11.642;2023-04-25T03:01:33;94764.31;;;6.86;75.91
26978;BME280;56314;48.088;11.642;2023-04-25T03:03:58;94768.81;;;6.84;74.88
26978;BME280;56314;48.088;11.642;2023-04-25T03:06:23;94765.78;;;6.90;76.55
26978;BME280;56314;48.088;11.642;2023-04-25T03:08:49;94764.94;;;6.89;76.14
26978;BME280;56314;48.088;11.642;2023-04-25T03:11:14;94761.03;;;6.95;76.44
26978;BME280;56314;48.088;11.642;2023-04-25T03:13:39;94767.09;;;6.96;76.29
26978;BME280;56314;48.088;11.642;2023-04-25T03:16:05;94777.03;;;6.90;76.21
26978;BME280;56314;48.088;11.642;2023-04-25T03:18:30;94778.38;;;6.96;75.12
26978;BME280;56314;48.088;11.642;2023-04-25T03:20:56;94783.47;;;6.98;74.92
26978;BME280;56314;48.088;11.642;2023-04-25T03:23:21;94781.38;;;7.03;74.99
26978;BME280;56314;48.088;11.642;2023-04-25T03:25:46;94769.94;;;6.92;76.21
26978;BME280;56314;48.088;11.642;2023-04-25T03:28:12;94772.75;;;6.89;78.80
26978;BME280;56314;48.088;11.642;2023-04-25T03:30:37;94768.09;;;6.82;78.91
26978;BME280;56314;48.088;11.642;2023-04-25T03:33:02;94768.22;;;6.80;77.63
26978;BME280;56314;48.088;11.642;2023-04-25T03:35:28;94761.53;;;6.76;77.28
26978;BME280;56314;48.088;11.642;2023-04-25T03:37:53;94765.34;;;6.72;77.28
26978;BME280;56314;48.088;11.642;2023-04-25T03:40:19;94767.59;;;6.76;76.55
26978;BME280;56314;48.088;11.642;2023-04-25T03:42:44;94759.88;;;6.75;77.75
26978;BME280;56314;48.088;11.642;2023-04-25T03:45:10;94750.84;;;6.68;78.64
26978;BME280;56314;48.088;11.642;2023-04-25T03:47:36;94755.31;;;6.66;79.73
26978;BME280;56314;48.088;11.642;2023-04-25T03:50:01;94757.31;;;6.62;82.08
26978;BME280;56314;48.088;11.642;2023-04-25T03:52:28;94760.47;;;6.54;81.29
26978;BME280;56314;48.088;11.642;2023-04-25T03:54:53;94770.63;;;6.46;79.70
26978;BME280;56314;48.088;11.642;2023-04-25T03:57:18;94764.22;;;6.50;79.69
26978;BME280;56314;48.088;11.642;2023-04-25T03:59:43;94763.63;;;6.46;80.16
26978;BME280;56314;48.088;11.642;2023-04-25T04:02:09;94768.44;;;6.40;80.48
26978;BME280;56314;48.088;11.642;2023-04-25T04:04:35;94768.88;;;6.34;80.79
26978;BME280;56314;48.088;11.642;2023-04-25T04:07:00;94772.94;;;6.38;83.01
26978;BME280;56314;48.088;11.642;2023-04-25T04:09:26;94761.69;;;6.37;82.50
26978;BME280;56314;48.088;11.642;2023-04-25T04:11:52;94769.72;;;6.34;82.77
26978;BME280;56314;48.088;11.642;2023-04-25T04:14:18;94762.34;;;6.28;82.88
26978;BME280;56314;48.088;11.642;2023-04-25T04:16:43;94763.16;;;6.28;83.26
26978;BME280;56314;48.088;11.642;2023-04-25T04:19:08;94761.88;;;6.34;83.44
26978;BME280;56314;48.088;11.642;2023-04-25T04:21:34;94754.59;;;6.26;82.81
26978;BME280;56314;48.088;11.642;2023-04-25T04:23:59;94754.31;;;6.31;83.62
26978;BME280;56314;48.088;11.642;2023-04-25T04:26:25;94749.50;;;6.25;84.12
26978;BME280;56314;48.088;11.642;2023-04-25T04:28:51;94752.22;;;6.23;83.88
26978;BME280;56314;48.088;11.642;2023-04-25T04:31:17;94746.16;;;6.23;84.05
26978;BME280;56314;48.088;11.642;2023-04-25T04:33:44;94750.78;;;6.19;83.12
26978;BME280;56314;48.088;11.642;2023-04-25T04:36:10;94750.66;;;6.21;83.87
26978;BME280;56314;48.088;11.642;2023-04-25T04:38:35;94751.06;;;6.27;84.41
26978;BME280;56314;48.088;11.642;2023-04-25T04:41:01;94755.78;;;6.22;82.83
26978;BME280;56314;48.088;11.642;2023-04-25T04:43:27;94763.69;;;6.21;84.30
26978;BME280;56314;48.088;11.642;2023-04-25T04:45:53;94772.84;;;6.26;83.98
26978;BME280;56314;48.088;11.642;2023-04-25T04:48:21;94779.66;;;6.29;84.17
26978;BME280;56314;48.088;11.642;2023-04-25T04:50:47;94783.94;;;6.17;83.04
26978;BME280;56314;48.088;11.642;2023-04-25T04:53:13;94782.78;;;6.21;83.42
26978;BME280;56314;48.088;11.642;2023-04-25T04:55:38;94778.31;;;6.23;83.45
26978;BME280;56314;48.088;11.642;2023-04-25T04:58:04;94761.94;;;6.21;83.25
26978;BME280;56314;48.088;11.642;2023-04-25T05:00:29;94760.25;;;6.20;82.22
26978;BME280;56314;48.088;11.642;2023-04-25T05:02:55;94748.91;;;6.21;82.65
26978;BME280;56314;48.088;11.642;2023-04-25T05:05:21;94744.69;;;6.31;83.02
26978;BME280;56314;48.088;11.642;2023-04-25T05:07:46;94751.84;;;6.41;83.64
26978;BME280;56314;48.088;11.642;2023-04-25T05:10:12;94753.66;;;6.40;83.73
26978;BME280;56314;48.088;11.642;2023-04-25T05:12:37;94749.78;;;6.46;84.05
26978;BME280;56314;48.088;11.642;2023-04-25T05:15:03;94757.38;;;6.49;84.19
26978;BME280;56314;48.088;11.642;2023-04-25T05:17:28;94748.28;;;6.55;83.57
26978;BME280;56314;48.088;11.642;2023-04-25T05:19:54;94755.06;;;6.57;84.47
26978;BME280;56314;48.088;11.642;2023-04-25T05:22:19;94757.88;;;6.54;83.80
26978;BME280;56314;48.088;11.642;2023-04-25T05:24:44;94759.25;;;6.47;84.02
26978;BME280;56314;48.088;11.642;2023-04-25T05:27:10;94748.16;;;6.56;85.01
26978;BME280;56314;48.088;11.642;2023-04-25T05:29:35;94743.56;;;6.60;85.66
26978;BME280;56314;48.088;11.642;2023-04-25T05:32:00;94743.47;;;6.61;85.88
26978;BME280;56314;48.088;11.642;2023-04-25T05:34:26;94742.22;;;6.54;83.46
26978;BME280;56314;48.088;11.642;2023-04-25T05:36:51;94743.34;;;6.63;84.76
26978;BME280;56314;48.088;11.642;2023-04-25T05:39:17;94737.78;;;6.68;85.14
26978;BME280;56314;48.088;11.642;2023-04-25T05:41:42;94740.91;;;6.73;84.68
26978;BME280;56314;48.088;11.642;2023-04-25T05:44:08;94741.91;;;6.83;84.94
26978;BME280;56314;48.088;11.642;2023-04-25T05:46:33;94729.66;;;6.84;83.66
26978;BME280;56314;48.088;11.642;2023-04-25T05:48:59;94738.50;;;6.94;81.22
26978;BME280;56314;48.088;11.642;2023-04-25T05:51:24;94743.63;;;6.96;80.93
26978;BME280;56314;48.088;11.642;2023-04-25T05:53:49;94735.56;;;7.10;80.51
26978;BME280;56314;48.088;11.642;2023-04-25T05:56:15;94735.13;;;7.16;79.28
26978;BME280;56314;48.088;11.642;2023-04-25T05:58:40;94736.44;;;7.58;79.10
26978;BME280;56314;48.088;11.642;2023-04-25T06:01:06;94748.78;;;8.35;75.36
26978;BME280;56314;48.088;11.642;2023-04-25T06:03:31;94746.59;;;8.86;72.73
26978;BME280;56314;48.088;11.642;2023-04-25T06:05:56;94740.16;;;8.90;73.08
26978;BME280;56314;48.088;11.642;2023-04-25T06:08:22;94743.34;;;8.50;73.63
26978;BME280;56314;48.088;11.642;2023-04-25T06:10:47;94747.72;;;8.26;74.86
26978;BME280;56314;48.088;11.642;2023-04-25T06:13:12;94750.69;;;8.22;75.20
26978;BME280;56314;48.088;11.642;2023-04-25T06:15:38;94765.44;;;8.00;76.38
26978;BME280;56314;48.088;11.642;2023-04-25T06:18:03;94760.44;;;7.85;78.32
26978;BME280;56314;48.088;11.642;2023-04-25T06:20:29;94771.56;;;7.53;76.25
26978;BME280;56314;48.088;11.642;2023-04-25T06:22:54;94774.97;;;7.43;79.64
26978;BME280;56314;48.088;11.642;2023-04-25T06:25:20;94772.56;;;7.28;79.13
26978;BME280;56314;48.088;11.642;2023-04-25T06:27:45;94765.88;;;7.13;81.17
26978;BME280;56314;48.088;11.642;2023-04-25T06:30:12;94752.88;;;7.00;83.74
26978;BME280;56314;48.088;11.642;2023-04-25T06:32:38;94755.09;;;6.93;85.65
26978;BME280;56314;48.088;11.642;2023-04-25T06:35:04;94752.03;;;6.75;83.38
26978;BME280;56314;48.088;11.642;2023-04-25T06:37:30;94749.50;;;6.62;83.74
26978;BME280;56314;48.088;11.642;2023-04-25T06:39:55;94746.00;;;6.74;85.42
26978;BME280;56314;48.088;11.642;2023-04-25T06:42:21;94745.44;;;6.82;85.53
26978;BME280;56314;48.088;11.642;2023-04-25T06:44:46;94745.84;;;6.89;82.99
26978;BME280;56314;48.088;11.642;2023-04-25T06:47:11;94752.44;;;7.06;84.64
26978;BME280;56314;48.088;11.642;2023-04-25T06:49:37;94747.94;;;7.55;81.39
26978;BME280;56314;48.088;11.642;2023-04-25T06:52:02;94746.19;;;8.12;80.53
26978;BME280;56314;48.088;11.642;2023-04-25T06:54:28;94752.38;;;8.11;76.19
26978;BME280;56314;48.088;11.642;2023-04-25T06:56:55;94745.84;;;8.06;76.92
26978;BME280;56314;48.088;11.642;2023-04-25T06:59:20;94749.63;;;8.01;76.87
26978;BME280;56314;48.088;11.642;2023-04-25T07:01:46;94756.78;;;8.22;77.80
26978;BME280;56314;48.088;11.642;2023-04-25T07:04:11;94752.59;;;8.31;75.33
26978;BME280;56314;48.088;11.642;2023-04-25T07:06:36;94745.34;;;8.57;76.49
26978;BME280;56314;48.088;11.642;2023-04-25T07:09:10;94750.91;;;9.08;74.54
26978;BME280;56314;48.088;11.642;2023-04-25T07:11:36;94747.34;;;8.98;73.88
26978;BME280;56314;48.088;11.642;2023-04-25T07:14:01;94749.25;;;8.63;71.90
26978;BME280;56314;48.088;11.642;2023-04-25T07:16:27;94749.16;;;8.30;73.78
26978;BME280;56314;48.088;11.642;2023-04-25T07:18:52;94745.72;;;8.07;74.42
26978;BME280;56314;48.088;11.642;2023-04-25T07:21:18;94752.88;;;8.05;76.63
26978;BME280;56314;48.088;11.642;2023-04-25T07:23:43;94744.53;;;8.00;78.37
26978;BME280;56314;48.088;11.642;2023-04-25T07:26:08;94740.75;;;7.93;76.57
26978;BME280;56314;48.088;11.642;2023-04-25T07:28:34;94741.34;;;7.96;78.92
26978;BME280;56314;48.088;11.642;2023-04-25T07:30:59;94748.22;;;7.97;77.74
26978;BME280;56314;48.088;11.642;2023-04-25T07:33:25;94746.19;;;8.01;79.15
26978;BME280;56314;48.088;11.642;2023-04-25T07:35:50;94746.19;;;8.01;77.45
26978;BME280;56314;48.088;11.642;2023-04-25T07:38:15;94747.88;;;8.13;76.80
26978;BME280;56314;48.088;11.642;2023-04-25T07:40:41;94735.34;;;8.40;77.73
26978;BME280;56314;48.088;11.642;2023-04-25T07:43:06;94730.59;;;8.56;75.86
26978;BME280;56314;48.088;11.642;2023-04-25T07:45:32;94736.94;;;8.86;74.84
26978;BME280;56314;48.088;11.642;2023-04-25T07:47:57;94730.78;;;9.72;70.91
26978;BME280;56314;48.088;11.642;2023-04-25T07:50:22;94724.69;;;10.74;67.44
26978;BME280;56314;48.088;11.642;2023-04-25T07:52:48;94719.81;;;11.68;62.75
26978;BME280;56314;48.088;11.642;2023-04-25T07:55:13;94711.50;;;12.76;60.34
26978;BME280;56314;48.088;11.642;2023-04-25T07:57:38;94713.44;;;13.64;57.44
26978;BME280;56314;48.088;11.642;2023-04-25T08:00:05;94701.91;;;14.26;53.92
26978;BME280;56314;48.088;11.642;2023-04-25T08:02:35;94699.16;;;14.87;51.96
26978;BME280;56314;48.088;11.642;2023-04-25T08:05:01;94698.06;;;15.31;49.89
26978;BME280;56314;48.088;11.642;2023-04-25T08:07:27;94699.19;;;15.78;48.84
26978;BME280;56314;48.088;11.642;2023-04-25T08:09:52;94695.75;;;15.69;47.76
26978;BME280;56314;48.088;11.642;2023-04-25T08:12:18;94700.53;;;15.41;48.41
26978;BME280;56314;48.088;11.642;2023-04-25T08:14:43;94690.59;;;15.68;48.01
26978;BME280;56314;48.088;11.642;2023-04-25T08:17:09;94691.09;;;16.36;45.49
26978;BME280;56314;48.088;11.642;2023-04-25T08:19:34;94692.38;;;16.09;46.19
26978;BME280;56314;48.088;11.642;2023-04-25T08:22:00;94695.19;;;16.07;46.14
26978;BME280;56314;48.088;11.642;2023-04-25T08:24:25;94698.88;;;15.40;44.82
26978;BME280;56314;48.088;11.642;2023-04-25T08:26:51;94699.75;;;14.65;46.74
26978;BME280;56314;48.088;11.642;2023-04-25T08:29:16;94703.69;;;14.18;49.58
26978;BME280;56314;48.088;11.642;2023-04-25T08:31:42;94694.97;;;14.25;48.63
26978;BME280;56314;48.088;11.642;2023-04-25T08:34:07;94700.97;;;14.01;47.87
26978;BME280;56314;48.088;11.642;2023-04-25T08:36:32;94704.19;;;13.87;49.89
26978;BME280;56314;48.088;11.642;2023-04-25T08:38:58;94700.41;;;13.63;51.25
26978;BME280;56314;48.088;11.642;2023-04-25T08:41:24;94703.66;;;13.20;51.42
26978;BME280;56314;48.088;11.642;2023-04-25T08:43:51;94711.78;;;12.73;53.05
26978;BME280;56314;48.088;11.642;2023-04-25T08:46:19;94725.13;;;12.43;54.73
26978;BME280;56314;48.088;11.642;2023-04-25T08:48:45;94718.38;;;12.31;53.81
26978;BME280;56314;48.088;11.642;2023-04-25T08:51:20;94724.34;;;12.33;54.05
26978;BME280;56314;48.088;11.642;2023-04-25T08:53:48;94713.81;;;14.30;47.82
26978;BME280;56314;48.088;11.642;2023-04-25T08:56:16;94699.72;;;16.46;44.78
26978;BME280;56314;48.088;11.642;2023-04-25T08:58:48;94688.81;;;17.89;40.59
26978;BME280;56314;48.088;11.642;2023-04-25T09:01:15;94686.28;;;18.92;36.56
26978;BME280;56314;48.088;11.642;2023-04-25T09:03:40;94679.94;;;19.52;36.67
26978;BME280;56314;48.088;11.642;2023-04-25T09:06:07;94685.41;;;19.94;35.49
26978;BME280;56314;48.088;11.642;2023-04-25T09:08:33;94682.38;;;20.32;35.04
26978;BME280;56314;48.088;11.642;2023-04-25T09:10:58;94678.22;;;19.94;35.59
26978;BME280;56314;48.088;11.642;2023-04-25T09:13:26;94679.22;;;20.64;33.99
26978;BME280;56314;48.088;11.642;2023-04-25T09:15:56;94679.91;;;19.74;33.13
26978;BME280;56314;48.088;11.642;2023-04-25T09:18:29;94673.59;;;20.80;32.56
26978;BME280;56314;48.088;11.642;2023-04-25T09:21:09;94687.16;;;20.85;31.90
26978;BME280;56314;48.088;11.642;2023-04-25T09:23:43;94675.56;;;21.40;31.19
26978;BME280;56314;48.088;11.642;2023-04-25T09:26:09;94672.25;;;22.25;30.67
26978;BME280;56314;48.088;11.642;2023-04-25T09:28:35;94681.53;;;22.29;30.32
26978;BME280;56314;48.088;11.642;2023-04-25T09:31:01;94690.97;;;20.34;31.70
26978;BME280;56314;48.088;11.642;2023-04-25T09:33:28;94682.50;;;21.07;32.06
26978;BME280;56314;48.088;11.642;2023-04-25T09:36:02;94681.09;;;21.25;31.34
26978;BME280;56314;48.088;11.642;2023-04-25T09:38:30;94675.41;;;21.89;30.50
26978;BME280;56314;48.088;11.642;2023-04-25T09:40:55;94676.69;;;22.79;30.29
26978;BME280;56314;48.088;11.642;2023-04-25T09:43:21;94685.25;;;22.15;29.83
26978;BME280;56314;48.088;11.642;2023-04-25T09:45:47;94697.44;;;20.53;31.71
26978;BME280;56314;48.088;11.642;2023-04-25T09:48:20;94698.81;;;19.85;34.38
26978;BME280;56314;48.088;11.642;2023-04-25T09:53:36;94705.63;;;17.81;35.11
26978;BME280;56314;48.088;11.642;2023-04-25T09:56:06;94710.69;;;17.06;36.66
26978;BME280;56314;48.088;11.642;2023-04-25T09:58:32;94723.09;;;16.35;37.32
26978;BME280;56314;48.088;11.642;2023-04-25T10:01:01;94720.41;;;15.87;39.92
26978;BME280;56314;48.088;11.642;2023-04-25T10:03:30;94721.66;;;15.16;39.55
26978;BME280;56314;48.088;11.642;2023-04-25T10:05:59;94720.13;;;14.81;41.36
26978;BME280;56314;48.088;11.642;2023-04-25T10:08:33;94728.13;;;14.62;42.80
26978;BME280;56314;48.088;11.642;2023-04-25T10:11:00;94726.38;;;14.37;42.81
26978;BME280;56314;48.088;11.642;2023-04-25T10:13:26;94720.81;;;14.13;42.95
26978;BME280;56314;48.088;11.642;2023-04-25T10:15:53;94730.38;;;13.80;43.65
26978;BME280;56314;48.088;11.642;2023-04-25T10:18:19;94725.59;;;13.57;44.66
26978;BME280;56314;48.088;11.642;2023-04-25T10:20:45;94722.81;;;13.41;43.72
26978;BME280;56314;48.088;11.642;2023-04-25T10:23:14;94721.00;;;13.23;44.73
26978;BME280;56314;48.088;11.642;2023-04-25T10:25:41;94724.97;;;13.27;45.25
26978;BME280;56314;48.088;11.642;2023-04-25T10:28:06;94724.06;;;13.18;44.57
26978;BME280;56314;48.088;11.642;2023-04-25T10:30:32;94719.78;;;14.06;45.98
26978;BME280;56314;48.088;11.642;2023-04-25T10:32:58;94701.31;;;15.83;42.88
26978;BME280;56314;48.088;11.642;2023-04-25T10:35:26;94689.34;;;17.46;39.02
26978;BME280;56314;48.088;11.642;2023-04-25T10:40:24;94683.44;;;18.12;36.87
26978;BME280;56314;48.088;11.642;2023-04-25T10:42:52;94690.34;;;17.45;36.26
26978;BME280;56314;48.088;11.642;2023-04-25T10:45:17;94696.44;;;16.76;37.23
26978;BME280;56314;48.088;11.642;2023-04-25T10:47:46;94712.94;;;15.90;38.13
26978;BME280;56314;48.088;11.642;2023-04-25T10:50:11;94729.09;;;14.96;43.76
26978;BME280;56314;48.088;11.642;2023-04-25T10:52:39;94748.06;;;13.88;47.58
26978;BME280;56314;48.088;11.642;2023-04-25T10:55:08;94751.34;;;13.27;51.44
26978;BME280;56314;48.088;11.642;2023-04-25T10:57:41;94764.94;;;12.58;49.73
26978;BME280;56314;48.088;11.642;2023-04-25T11:00:12;94776.97;;;12.33;49.68
26978;BME280;56314;48.088;11.642;2023-04-25T11:05:09;94770.34;;;11.72;52.10
26978;BME280;56314;48.088;11.642;2023-04-25T11:07:49;94775.19;;;11.37;52.60
26978;BME280;56314;48.088;11.642;2023-04-25T11:10:17;94790.97;;;11.37;53.15
26978;BME280;56314;48.088;11.642;2023-04-25T11:12:43;94784.88;;;11.27;55.30
26978;BME280;56314;48.088;11.642;2023-04-25T11:15:10;94790.97;;;11.27;56.86
26978;BME280;56314;48.088;11.642;2023-04-25T11:17:35;94794.03;;;11.32;60.53
26978;BME280;56314;48.088;11.642;2023-04-25T11:20:00;94794.84;;;11.23;59.38
26978;BME280;56314;48.088;11.642;2023-04-25T11:22:27;94801.34;;;11.38;59.93
26978;BME280;56314;48.088;11.642;2023-04-25T11:24:52;94803.56;;;11.43;58.67
26978;BME280;56314;48.088;11.642;2023-04-25T11:27:18;94829.47;;;11.48;58.10
26978;BME280;56314;48.088;11.642;2023-04-25T11:29:44;94823.63;;;11.44;57.48
26978;BME280;56314;48.088;11.642;2023-04-25T11:32:09;94833.28;;;11.14;57.00
26978;BME280;56314;48.088;11.642;2023-04-25T11:34:35;94854.78;;;10.88;59.63
26978;BME280;56314;48.088;11.642;2023-04-25T11:37:01;94843.63;;;10.55;60.91
26978;BME280;56314;48.088;11.642;2023-04-25T11:39:28;94846.59;;;10.20;62.65
26978;BME280;56314;48.088;11.642;2023-04-25T11:41:54;94849.56;;;9.84;64.10
26978;BME280;56314;48.088;11.642;2023-04-25T11:44:20;94859.44;;;9.80;64.96
26978;BME280;56314;48.088;11.642;2023-04-25T11:46:46;94857.28;;;9.85;64.12
26978;BME280;56314;48.088;11.642;2023-04-25T11:49:12;94860.44;;;9.79;64.01
26978;BME280;56314;48.088;11.642;2023-04-25T11:51:46;94857.22;;;9.97;65.39
26978;BME280;56314;48.088;11.642;2023-04-25T11:54:12;94865.72;;;10.10;65.17
26978;BME280;56314;48.088;11.642;2023-04-25T11:56:41;94867.47;;;10.00;65.91
26978;BME280;56314;48.088;11.642;2023-04-25T11:59:06;94870.25;;;9.87;67.71
26978;BME280;56314;48.088;11.642;2023-04-25T12:01:33;94871.28;;;9.75;68.67
26978;BME280;56314;48.088;11.642;2023-04-25T12:04:16;94874.16;;;9.72;69.34
26978;BME280;56314;48.088;11.642;2023-04-25T12:06:43;94880.84;;;9.64;70.40
26978;BME280;56314;48.088;11.642;2023-04-25T12:09:12;94880.53;;;9.58;70.63
26978;BME280;56314;48.088;11.642;2023-04-25T12:11:45;94890.03;;;9.37;67.75
26978;BME280;56314;48.088;11.642;2023-04-25T12:14:12;94882.97;;;9.38;69.65
26978;BME280;56314;48.088;11.642;2023-04-25T12:16:46;94885.25;;;9.31;71.52
26978;BME280;56314;48.088;11.642;2023-04-25T12:19:19;94875.72;;;9.30;71.06
26978;BME280;56314;48.088;11.642;2023-04-25T12:21:45;94874.97;;;9.39;72.33
26978;BME280;56314;48.088;11.642;2023-04-25T12:24:21;94879.66;;;9.36;74.55
26978;BME280;56314;48.088;11.642;2023-04-25T12:26:52;94875.94;;;9.50;74.41
26978;BME280;56314;48.088;11.642;2023-04-25T12:29:19;94878.69;;;9.37;73.36
26978;BME280;56314;48.088;11.642;2023-04-25T12:31:45;94885.84;;;9.35;75.68
26978;BME280;56314;48.088;11.642;2023-04-25T12:34:11;94881.94;;;9.18;74.46
26978;BME280;56314;48.088;11.642;2023-04-25T12:36:37;94888.13;;;9.28;75.75
26978;BME280;56314;48.088;11.642;2023-04-25T12:39:02;94888.34;;;9.36;75.77
26978;BME280;56314;48.088;11.642;2023-04-25T12:41:29;94884.69;;;9.60;76.93
26978;BME280;56314;48.088;11.642;2023-04-25T12:43:55;94894.34;;;9.60;75.59
26978;BME280;56314;48.088;11.642;2023-04-25T12:46:20;94880.53;;;9.58;73.57
26978;BME280;56314;48.088;11.642;2023-04-25T12:48:46;94881.97;;;9.83;73.65
26978;BME280;56314;48.088;11.642;2023-04-25T12:51:11;94877.56;;;9.83;70.74
26978;BME280;56314;48.088;11.642;2023-04-25T12:53:36;94882.75;;;9.74;72.54
26978;BME280;56314;48.088;11.642;2023-04-25T12:56:04;94884.59;;;9.83;72.05
26978;BME280;56314;48.088;11.642;2023-04-25T12:58:29;94893.44;;;9.82;71.36
26978;BME280;56314;48.088;11.642;2023-04-25T13:00:55;94889.31;;;9.68;71.91